sensor_id;sensor_type;location;lat;lon;timestamp;P1;durP1;ratioP1;P2;durP2;ratioP2
44048;SDS011;29717;47.028;15.470;2022-11-23T00:01:16;5.03;;;4.17;;
44048;SDS011;29717;47.028;15.470;2022-11-23T00:03:43;5.47;;;4.37;;
44048;SDS011;29717;47.028;15.470;2022-11-23T00:06:10;4.03;;;3.63;;
44048;SDS011;29717;47.028;15.470;2022-11-23T00:08:37;5.57;;;4.03;;
44048;SDS011;29717;47.028;15.470;2022-11-23T00:11:05;4.20;;;3.80;;
44048;SDS011;29717;47.028;15.470;2022-11-23T00:13:32;5.73;;;3.73;;
44048;SDS011;29717;47.028;15.470;2022-11-23T00:16:00;3.83;;;3.40;;
44048;SDS011;29717;47.028;15.470;2022-11-23T00:18:27;4.33;;;3.63;;
44048;SDS011;29717;47.028;15.470;2022-11-23T00:20:54;4.57;;;3.60;;
44048;SDS011;29717;47.028;15.470;2022-11-23T00:23:20;4.13;;;3.33;;
44048;SDS011;29717;47.028;15.470;2022-11-23T00:25:47;3.50;;;3.00;;
44048;SDS011;29717;47.028;15.470;2022-11-23T00:28:15;4.00;;;3.43;;
44048;SDS011;29717;47.028;15.470;2022-11-23T00:30:47;4.23;;;3.83;;
44048;SDS011;29717;47.028;15.470;2022-11-23T00:33:13;3.80;;;3.40;;
44048;SDS011;29717;47.028;15.470;2022-11-23T00:35:40;9.67;;;5.87;;
44048;SDS011;29717;47.028;15.470;2022-11-23T00:38:07;5.80;;;4.40;;
44048;SDS011;29717;47.028;15.470;2022-11-23T00:40:33;7.83;;;5.60;;
44048;SDS011;29717;47.028;15.470;2022-11-23T00:43:00;9.00;;;6.67;;
44048;SDS011;29717;47.028;15.470;2022-11-23T00:45:28;8.40;;;7.10;;
44048;SDS011;29717;47.028;15.470;2022-11-23T00:47:55;10.60;;;8.03;;
44048;SDS011;29717;47.028;15.470;2022-11-23T00:50:21;8.83;;;7.13;;
44048;SDS011;29717;47.028;15.470;2022-11-23T00:52:48;8.40;;;6.07;;
44048;SDS011;29717;47.028;15.470;2022-11-23T00:55:15;7.90;;;5.87;;
44048;SDS011;29717;47.028;15.470;2022-11-23T00:57:42;9.33;;;6.77;;
44048;SDS011;29717;47.028;15.470;2022-11-23T01:00:09;12.10;;;9.67;;
44048;SDS011;29717;47.028;15.470;2022-11-23T01:02:38;12.97;;;10.13;;
44048;SDS011;29717;47.028;15.470;2022-11-23T01:05:05;13.27;;;10.47;;
44048;SDS011;29717;47.028;15.470;2022-11-23T01:07:32;14.27;;;11.57;;
44048;SDS011;29717;47.028;15.470;2022-11-23T01:09:59;14.10;;;10.93;;
44048;SDS011;29717;47.028;15.470;2022-11-23T01:12:27;13.13;;;10.97;;
44048;SDS011;29717;47.028;15.470;2022-11-23T01:14:54;12.93;;;11.53;;
44048;SDS011;29717;47.028;15.470;2022-11-23T01:17:20;14.13;;;11.77;;
44048;SDS011;29717;47.028;15.470;2022-11-23T01:19:49;12.87;;;11.23;;
44048;SDS011;29717;47.028;15.470;2022-11-23T01:22:15;13.70;;;10.87;;
44048;SDS011;29717;47.028;15.470;2022-11-23T01:24:44;11.70;;;10.50;;
44048;SDS011;29717;47.028;15.470;2022-11-23T01:27:11;12.23;;;10.60;;
44048;SDS011;29717;47.028;15.470;2022-11-23T01:29:37;12.33;;;10.10;;
44048;SDS011;29717;47.028;15.470;2022-11-23T01:32:04;12.97;;;9.87;;
44048;SDS011;29717;47.028;15.470;2022-11-23T01:34:31;13.00;;;9.77;;
44048;SDS011;29717;47.028;15.470;2022-11-23T01:36:59;12.30;;;9.97;;
44048;SDS011;29717;47.028;15.470;2022-11-23T01:39:26;9.80;;;8.77;;
44048;SDS011;29717;47.028;15.470;2022-11-23T01:41:53;10.70;;;9.20;;
44048;SDS011;29717;47.028;15.470;2022-11-23T01:44:24;10.30;;;9.13;;
44048;SDS011;29717;47.028;15.470;2022-11-23T01:46:51;8.40;;;7.47;;
44048;SDS011;29717;47.028;15.470;2022-11-23T01:49:18;8.53;;;7.63;;
44048;SDS011;29717;47.028;15.470;2022-11-23T01:51:45;9.33;;;7.60;;
44048;SDS011;29717;47.028;15.470;2022-11-23T01:54:17;9.30;;;7.83;;
44048;SDS011;29717;47.028;15.470;2022-11-23T01:56:48;8.43;;;7.63;;
44048;SDS011;29717;47.028;15.470;2022-11-23T01:59:16;10.07;;;8.30;;
44048;SDS011;29717;47.028;15.470;2022-11-23T02:01:44;10.27;;;8.27;;
44048;SDS011;29717;47.028;15.470;2022-11-23T02:04:12;9.97;;;8.43;;
44048;SDS011;29717;47.028;15.470;2022-11-23T02:06:40;8.60;;;7.60;;
44048;SDS011;29717;47.028;15.470;2022-11-23T02:09:08;8.43;;;7.47;;
44048;SDS011;29717;47.028;15.470;2022-11-23T02:11:36;8.87;;;7.03;;
44048;SDS011;29717;47.028;15.470;2022-11-23T02:14:03;9.00;;;6.67;;
44048;SDS011;29717;47.028;15.470;2022-11-23T02:16:30;7.87;;;7.07;;
44048;SDS011;29717;47.028;15.470;2022-11-23T02:18:57;7.57;;;6.83;;
44048;SDS011;29717;47.028;15.470;2022-11-23T02:21:23;8.87;;;6.57;;
44048;SDS011;29717;47.028;15.470;2022-11-23T02:23:52;5.73;;;5.13;;
44048;SDS011;29717;47.028;15.470;2022-11-23T02:26:22;7.70;;;5.40;;
44048;SDS011;29717;47.028;15.470;2022-11-23T02:28:51;6.00;;;5.40;;
44048;SDS011;29717;47.028;15.470;2022-11-23T02:31:19;6.53;;;5.50;;
44048;SDS011;29717;47.028;15.470;2022-11-23T02:33:46;6.57;;;5.63;;
44048;SDS011;29717;47.028;15.470;2022-11-23T02:38:59;5.70;;;4.60;;
44048;SDS011;29717;47.028;15.470;2022-11-23T02:41:28;6.20;;;5.60;;
44048;SDS011;29717;47.028;15.470;2022-11-23T02:43:59;6.87;;;5.87;;
44048;SDS011;29717;47.028;15.470;2022-11-23T02:46:26;5.83;;;4.87;;
44048;SDS011;29717;47.028;15.470;2022-11-23T02:48:53;5.57;;;5.07;;
44048;SDS011;29717;47.028;15.470;2022-11-23T02:51:20;6.03;;;5.03;;
44048;SDS011;29717;47.028;15.470;2022-11-23T02:53:47;5.17;;;4.33;;
44048;SDS011;29717;47.028;15.470;2022-11-23T02:56:14;5.10;;;4.60;;
44048;SDS011;29717;47.028;15.470;2022-11-23T02:58:42;4.43;;;4.03;;
44048;SDS011;29717;47.028;15.470;2022-11-23T03:01:08;5.60;;;4.50;;
44048;SDS011;29717;47.028;15.470;2022-11-23T03:03:35;5.77;;;5.13;;
44048;SDS011;29717;47.028;15.470;2022-11-23T03:06:07;5.70;;;5.20;;
44048;SDS011;29717;47.028;15.470;2022-11-23T03:08:34;5.57;;;5.07;;
44048;SDS011;29717;47.028;15.470;2022-11-23T03:11:00;10.07;;;5.83;;
44048;SDS011;29717;47.028;15.470;2022-11-23T03:13:27;8.53;;;7.20;;
44048;SDS011;29717;47.028;15.470;2022-11-23T03:15:55;8.67;;;6.73;;
44048;SDS011;29717;47.028;15.470;2022-11-23T03:18:22;9.13;;;7.20;;
44048;SDS011;29717;47.028;15.470;2022-11-23T03:20:49;10.07;;;7.23;;
44048;SDS011;29717;47.028;15.470;2022-11-23T03:23:15;7.27;;;6.57;;
44048;SDS011;29717;47.028;15.470;2022-11-23T03:25:42;8.97;;;7.47;;
44048;SDS011;29717;47.028;15.470;2022-11-23T03:28:09;9.53;;;7.80;;
44048;SDS011;29717;47.028;15.470;2022-11-23T03:30:35;9.93;;;8.37;;
44048;SDS011;29717;47.028;15.470;2022-11-23T03:33:03;8.93;;;8.00;;
44048;SDS011;29717;47.028;15.470;2022-11-23T03:35:30;8.63;;;7.70;;
44048;SDS011;29717;47.028;15.470;2022-11-23T03:37:57;9.53;;;8.07;;
44048;SDS011;29717;47.028;15.470;2022-11-23T03:40:23;8.60;;;7.70;;
44048;SDS011;29717;47.028;15.470;2022-11-23T03:42:50;9.77;;;8.63;;
44048;SDS011;29717;47.028;15.470;2022-11-23T03:45:17;8.07;;;7.27;;
44048;SDS011;29717;47.028;15.470;2022-11-23T03:47:43;8.77;;;7.60;;
44048;SDS011;29717;47.028;15.470;2022-11-23T03:50:12;9.00;;;7.10;;
44048;SDS011;29717;47.028;15.470;2022-11-23T03:52:38;8.03;;;7.10;;
44048;SDS011;29717;47.028;15.470;2022-11-23T03:55:05;7.00;;;6.30;;
44048;SDS011;29717;47.028;15.470;2022-11-23T03:57:32;7.50;;;6.50;;
44048;SDS011;29717;47.028;15.470;2022-11-23T03:59:59;7.17;;;6.10;;
44048;SDS011;29717;47.028;15.470;2022-11-23T04:02:25;7.30;;;6.60;;
44048;SDS011;29717;47.028;15.470;2022-11-23T04:04:52;7.57;;;6.63;;
44048;SDS011;29717;47.028;15.470;2022-11-23T04:07:20;9.70;;;6.57;;
44048;SDS011;29717;47.028;15.470;2022-11-23T04:09:47;6.90;;;5.77;;
44048;SDS011;29717;47.028;15.470;2022-11-23T04:12:14;8.67;;;6.77;;
44048;SDS011;29717;47.028;15.470;2022-11-23T04:14:41;7.20;;;6.47;;
44048;SDS011;29717;47.028;15.470;2022-11-23T04:17:07;9.73;;;6.97;;
44048;SDS011;29717;47.028;15.470;2022-11-23T04:19:34;8.43;;;7.33;;
44048;SDS011;29717;47.028;15.470;2022-11-23T04:22:01;8.23;;;7.33;;
44048;SDS011;29717;47.028;15.470;2022-11-23T04:24:29;8.53;;;7.27;;
44048;SDS011;29717;47.028;15.470;2022-11-23T04:26:56;9.03;;;7.87;;
44048;SDS011;29717;47.028;15.470;2022-11-23T04:29:23;10.43;;;7.37;;
44048;SDS011;29717;47.028;15.470;2022-11-23T04:31:49;8.53;;;7.40;;
44048;SDS011;29717;47.028;15.470;2022-11-23T04:34:16;9.90;;;8.00;;
44048;SDS011;29717;47.028;15.470;2022-11-23T04:36:43;9.10;;;8.20;;
44048;SDS011;29717;47.028;15.470;2022-11-23T04:39:10;10.23;;;8.67;;
44048;SDS011;29717;47.028;15.470;2022-11-23T04:41:39;8.70;;;7.87;;
44048;SDS011;29717;47.028;15.470;2022-11-23T04:44:06;13.30;;;9.40;;
44048;SDS011;29717;47.028;15.470;2022-11-23T04:46:33;9.33;;;8.33;;
44048;SDS011;29717;47.028;15.470;2022-11-23T04:48:59;10.60;;;9.57;;
44048;SDS011;29717;47.028;15.470;2022-11-23T04:51:26;12.10;;;10.40;;
44048;SDS011;29717;47.028;15.470;2022-11-23T04:53:53;11.07;;;9.67;;
44048;SDS011;29717;47.028;15.470;2022-11-23T04:56:19;16.07;;;9.73;;
44048;SDS011;29717;47.028;15.470;2022-11-23T04:58:48;11.07;;;9.43;;
44048;SDS011;29717;47.028;15.470;2022-11-23T05:01:15;10.30;;;9.20;;
44048;SDS011;29717;47.028;15.470;2022-11-23T05:03:42;10.13;;;8.60;;
44048;SDS011;29717;47.028;15.470;2022-11-23T05:06:08;9.77;;;8.77;;
44048;SDS011;29717;47.028;15.470;2022-11-23T05:08:35;10.17;;;9.17;;
44048;SDS011;29717;47.028;15.470;2022-11-23T05:11:02;10.53;;;8.73;;
44048;SDS011;29717;47.028;15.470;2022-11-23T05:13:29;10.20;;;8.97;;
44048;SDS011;29717;47.028;15.470;2022-11-23T05:15:57;9.73;;;8.47;;
44048;SDS011;29717;47.028;15.470;2022-11-23T05:18:24;10.60;;;8.67;;
44048;SDS011;29717;47.028;15.470;2022-11-23T05:20:51;9.93;;;8.60;;
44048;SDS011;29717;47.028;15.470;2022-11-23T05:23:17;9.80;;;8.73;;
44048;SDS011;29717;47.028;15.470;2022-11-23T05:25:44;10.43;;;9.03;;
44048;SDS011;29717;47.028;15.470;2022-11-23T05:28:11;11.30;;;9.20;;
44048;SDS011;29717;47.028;15.470;2022-11-23T05:30:39;12.10;;;9.73;;
44048;SDS011;29717;47.028;15.470;2022-11-23T05:33:07;17.20;;;9.70;;
44048;SDS011;29717;47.028;15.470;2022-11-23T05:35:34;14.00;;;9.03;;
44048;SDS011;29717;47.028;15.470;2022-11-23T05:38:01;12.13;;;9.60;;
44048;SDS011;29717;47.028;15.470;2022-11-23T05:40:27;18.77;;;10.50;;
44048;SDS011;29717;47.028;15.470;2022-11-23T05:42:54;13.30;;;10.20;;
44048;SDS011;29717;47.028;15.470;2022-11-23T05:45:21;13.50;;;9.53;;
44048;SDS011;29717;47.028;15.470;2022-11-23T05:47:48;12.37;;;9.20;;
44048;SDS011;29717;47.028;15.470;2022-11-23T05:50:17;10.73;;;9.20;;
44048;SDS011;29717;47.028;15.470;2022-11-23T05:52:45;17.37;;;9.57;;
44048;SDS011;29717;47.028;15.470;2022-11-23T05:55:12;11.30;;;9.40;;
44048;SDS011;29717;47.028;15.470;2022-11-23T05:57:42;11.63;;;9.97;;
44048;SDS011;29717;47.028;15.470;2022-11-23T06:00:17;12.37;;;10.37;;
44048;SDS011;29717;47.028;15.470;2022-11-23T06:02:48;14.93;;;10.73;;
44048;SDS011;29717;47.028;15.470;2022-11-23T06:05:16;13.50;;;11.63;;
44048;SDS011;29717;47.028;15.470;2022-11-23T06:07:48;14.10;;;12.60;;
44048;SDS011;29717;47.028;15.470;2022-11-23T06:10:27;13.53;;;10.07;;
44048;SDS011;29717;47.028;15.470;2022-11-23T06:12:54;11.60;;;10.40;;
44048;SDS011;29717;47.028;15.470;2022-11-23T06:15:21;11.30;;;10.17;;
44048;SDS011;29717;47.028;15.470;2022-11-23T06:17:47;14.93;;;10.60;;
44048;SDS011;29717;47.028;15.470;2022-11-23T06:20:14;12.20;;;10.70;;
44048;SDS011;29717;47.028;15.470;2022-11-23T06:22:42;12.37;;;11.07;;
44048;SDS011;29717;47.028;15.470;2022-11-23T06:25:09;11.83;;;10.63;;
44048;SDS011;29717;47.028;15.470;2022-11-23T06:27:36;11.30;;;7.93;;
44048;SDS011;29717;47.028;15.470;2022-11-23T06:30:03;13.50;;;10.07;;
44048;SDS011;29717;47.028;15.470;2022-11-23T06:32:30;11.23;;;10.03;;
44048;SDS011;29717;47.028;15.470;2022-11-23T06:34:57;10.77;;;9.67;;
44048;SDS011;29717;47.028;15.470;2022-11-23T06:37:23;10.40;;;9.20;;
44048;SDS011;29717;47.028;15.470;2022-11-23T06:39:52;10.73;;;9.70;;
44048;SDS011;29717;47.028;15.470;2022-11-23T06:42:19;11.93;;;9.90;;
44048;SDS011;29717;47.028;15.470;2022-11-23T06:44:46;12.17;;;10.17;;
44048;SDS011;29717;47.028;15.470;2022-11-23T06:47:13;13.47;;;11.40;;
44048;SDS011;29717;47.028;15.470;2022-11-23T06:49:40;12.13;;;10.67;;
44048;SDS011;29717;47.028;15.470;2022-11-23T06:52:06;12.43;;;10.77;;
44048;SDS011;29717;47.028;15.470;2022-11-23T06:54:33;12.47;;;10.53;;
44048;SDS011;29717;47.028;15.470;2022-11-23T06:57:02;11.27;;;10.00;;
44048;SDS011;29717;47.028;15.470;2022-11-23T06:59:28;10.73;;;9.63;;
44048;SDS011;29717;47.028;15.470;2022-11-23T07:01:55;12.53;;;9.80;;
44048;SDS011;29717;47.028;15.470;2022-11-23T07:04:22;10.73;;;9.60;;
44048;SDS011;29717;47.028;15.470;2022-11-23T07:06:49;11.73;;;9.87;;
44048;SDS011;29717;47.028;15.470;2022-11-23T07:09:15;12.93;;;9.90;;
44048;SDS011;29717;47.028;15.470;2022-11-23T07:11:42;12.80;;;9.67;;
44048;SDS011;29717;47.028;15.470;2022-11-23T07:14:10;12.40;;;10.90;;
44048;SDS011;29717;47.028;15.470;2022-11-23T07:16:37;13.00;;;10.83;;
44048;SDS011;29717;47.028;15.470;2022-11-23T07:19:04;12.90;;;11.10;;
44048;SDS011;29717;47.028;15.470;2022-11-23T07:21:30;14.93;;;11.93;;
44048;SDS011;29717;47.028;15.470;2022-11-23T07:23:57;34.30;;;27.90;;
44048;SDS011;29717;47.028;15.470;2022-11-23T07:26:24;16.50;;;14.47;;
44048;SDS011;29717;47.028;15.470;2022-11-23T07:28:50;14.90;;;12.03;;
44048;SDS011;29717;47.028;15.470;2022-11-23T07:31:19;13.73;;;11.73;;
44048;SDS011;29717;47.028;15.470;2022-11-23T07:33:45;15.17;;;13.27;;
44048;SDS011;29717;47.028;15.470;2022-11-23T07:36:12;19.27;;;13.70;;
44048;SDS011;29717;47.028;15.470;2022-11-23T07:38:39;14.83;;;13.23;;
44048;SDS011;29717;47.028;15.470;2022-11-23T07:41:06;15.17;;;13.57;;
44048;SDS011;29717;47.028;15.470;2022-11-23T07:43:33;15.93;;;13.97;;
44048;SDS011;29717;47.028;15.470;2022-11-23T07:46:00;19.63;;;15.87;;
44048;SDS011;29717;47.028;15.470;2022-11-23T07:48:28;18.40;;;15.03;;
44048;SDS011;29717;47.028;15.470;2022-11-23T07:50:54;22.63;;;18.37;;
44048;SDS011;29717;47.028;15.470;2022-11-23T07:53:22;24.17;;;20.63;;
44048;SDS011;29717;47.028;15.470;2022-11-23T07:55:53;21.13;;;17.67;;
44048;SDS011;29717;47.028;15.470;2022-11-23T07:58:20;19.50;;;15.67;;
44048;SDS011;29717;47.028;15.470;2022-11-23T08:00:47;19.50;;;15.17;;
44048;SDS011;29717;47.028;15.470;2022-11-23T08:03:14;21.13;;;15.07;;
44048;SDS011;29717;47.028;15.470;2022-11-23T08:05:42;18.43;;;14.70;;
44048;SDS011;29717;47.028;15.470;2022-11-23T08:08:09;14.10;;;12.40;;
44048;SDS011;29717;47.028;15.470;2022-11-23T08:10:36;16.07;;;13.17;;
44048;SDS011;29717;47.028;15.470;2022-11-23T08:13:03;14.10;;;11.73;;
44048;SDS011;29717;47.028;15.470;2022-11-23T08:15:31;10.93;;;9.87;;
44048;SDS011;29717;47.028;15.470;2022-11-23T08:17:59;12.83;;;10.50;;
44048;SDS011;29717;47.028;15.470;2022-11-23T08:20:26;12.60;;;10.43;;
44048;SDS011;29717;47.028;15.470;2022-11-23T08:22:55;12.97;;;11.57;;
44048;SDS011;29717;47.028;15.470;2022-11-23T08:25:22;13.40;;;12.00;;
44048;SDS011;29717;47.028;15.470;2022-11-23T08:27:52;11.93;;;10.23;;
44048;SDS011;29717;47.028;15.470;2022-11-23T08:30:19;9.47;;;8.47;;
44048;SDS011;29717;47.028;15.470;2022-11-23T08:32:46;8.93;;;8.03;;
44048;SDS011;29717;47.028;15.470;2022-11-23T08:35:13;13.50;;;10.93;;
44048;SDS011;29717;47.028;15.470;2022-11-23T08:37:39;14.80;;;11.63;;
44048;SDS011;29717;47.028;15.470;2022-11-23T08:40:08;14.33;;;11.77;;
44048;SDS011;29717;47.028;15.470;2022-11-23T08:42:35;16.97;;;14.13;;
44048;SDS011;29717;47.028;15.470;2022-11-23T08:45:02;14.30;;;12.33;;
44048;SDS011;29717;47.028;15.470;2022-11-23T08:47:30;14.33;;;12.57;;
44048;SDS011;29717;47.028;15.470;2022-11-23T08:49:56;17.80;;;13.20;;
44048;SDS011;29717;47.028;15.470;2022-11-23T08:52:23;15.13;;;13.53;;
44048;SDS011;29717;47.028;15.470;2022-11-23T08:54:50;15.93;;;14.07;;
44048;SDS011;29717;47.028;15.470;2022-11-23T08:57:18;21.03;;;15.33;;
44048;SDS011;29717;47.028;15.470;2022-11-23T08:59:45;16.57;;;14.00;;
44048;SDS011;29717;47.028;15.470;2022-11-23T09:02:12;15.77;;;13.10;;
44048;SDS011;29717;47.028;15.470;2022-11-23T09:04:39;17.57;;;12.93;;
44048;SDS011;29717;47.028;15.470;2022-11-23T09:07:06;16.37;;;13.53;;
44048;SDS011;29717;47.028;15.470;2022-11-23T09:09:33;17.47;;;14.63;;
44048;SDS011;29717;47.028;15.470;2022-11-23T09:11:59;18.93;;;14.87;;
44048;SDS011;29717;47.028;15.470;2022-11-23T09:14:27;16.07;;;12.97;;
44048;SDS011;29717;47.028;15.470;2022-11-23T09:16:54;17.00;;;13.80;;
44048;SDS011;29717;47.028;15.470;2022-11-23T09:19:21;16.83;;;13.40;;
44048;SDS011;29717;47.028;15.470;2022-11-23T09:21:48;14.07;;;12.37;;
44048;SDS011;29717;47.028;15.470;2022-11-23T09:24:14;12.80;;;10.60;;
44048;SDS011;29717;47.028;15.470;2022-11-23T09:26:41;12.17;;;10.90;;
44048;SDS011;29717;47.028;15.470;2022-11-23T09:29:08;15.17;;;11.07;;
44048;SDS011;29717;47.028;15.470;2022-11-23T09:31:37;10.77;;;9.67;;
44048;SDS011;29717;47.028;15.470;2022-11-23T09:34:03;11.57;;;8.67;;
44048;SDS011;29717;47.028;15.470;2022-11-23T09:36:30;10.83;;;9.80;;
44048;SDS011;29717;47.028;15.470;2022-11-23T09:38:57;14.73;;;9.63;;
44048;SDS011;29717;47.028;15.470;2022-11-23T09:41:39;11.53;;;9.43;;
44048;SDS011;29717;47.028;15.470;2022-11-23T09:44:07;10.53;;;9.37;;
44048;SDS011;29717;47.028;15.470;2022-11-23T09:46:44;10.30;;;9.30;;
44048;SDS011;29717;47.028;15.470;2022-11-23T09:49:13;15.43;;;10.03;;
44048;SDS011;29717;47.028;15.470;2022-11-23T09:51:42;10.83;;;9.70;;
44048;SDS011;29717;47.028;15.470;2022-11-23T09:54:12;12.43;;;10.07;;
44048;SDS011;29717;47.028;15.470;2022-11-23T09:56:40;10.70;;;9.43;;
44048;SDS011;29717;47.028;15.470;2022-11-23T09:59:11;13.27;;;10.33;;
44048;SDS011;29717;47.028;15.470;2022-11-23T10:01:39;11.70;;;9.77;;
44048;SDS011;29717;47.028;15.470;2022-11-23T10:04:09;9.03;;;8.13;;
44048;SDS011;29717;47.028;15.470;2022-11-23T10:06:41;9.83;;;8.70;;
44048;SDS011;29717;47.028;15.470;2022-11-23T10:09:13;10.00;;;9.00;;
44048;SDS011;29717;47.028;15.470;2022-11-23T10:11:49;9.17;;;8.27;;
44048;SDS011;29717;47.028;15.470;2022-11-23T10:14:23;9.87;;;8.83;;
44048;SDS011;29717;47.028;15.470;2022-11-23T10:16:55;10.50;;;7.20;;
44048;SDS011;29717;47.028;15.470;2022-11-23T10:19:28;9.77;;;7.50;;
44048;SDS011;29717;47.028;15.470;2022-11-23T10:22:00;10.90;;;8.07;;
44048;SDS011;29717;47.028;15.470;2022-11-23T10:24:29;8.57;;;7.77;;
44048;SDS011;29717;47.028;15.470;2022-11-23T10:26:58;7.90;;;7.13;;
44048;SDS011;29717;47.028;15.470;2022-11-23T10:29:26;9.87;;;8.07;;
44048;SDS011;29717;47.028;15.470;2022-11-23T10:31:53;9.47;;;8.20;;
44048;SDS011;29717;47.028;15.470;2022-11-23T10:34:22;11.33;;;8.80;;
44048;SDS011;29717;47.028;15.470;2022-11-23T10:36:51;8.67;;;7.87;;
44048;SDS011;29717;47.028;15.470;2022-11-23T10:39:19;9.47;;;8.57;;
44048;SDS011;29717;47.028;15.470;2022-11-23T10:41:47;12.87;;;9.87;;
44048;SDS011;29717;47.028;15.470;2022-11-23T10:44:17;11.77;;;9.30;;
44048;SDS011;29717;47.028;15.470;2022-11-23T10:46:46;9.63;;;8.37;;
44048;SDS011;29717;47.028;15.470;2022-11-23T10:49:14;12.80;;;9.10;;
44048;SDS011;29717;47.028;15.470;2022-11-23T10:51:47;9.87;;;8.77;;
44048;SDS011;29717;47.028;15.470;2022-11-23T10:54:18;10.87;;;7.47;;
44048;SDS011;29717;47.028;15.470;2022-11-23T10:56:47;7.67;;;6.87;;
44048;SDS011;29717;47.028;15.470;2022-11-23T11:04:44;7.80;;;6.63;;
44048;SDS011;29717;47.028;15.470;2022-11-23T11:07:17;7.57;;;6.60;;
44048;SDS011;29717;47.028;15.470;2022-11-23T11:09:48;9.60;;;6.90;;
44048;SDS011;29717;47.028;15.470;2022-11-23T11:12:17;8.30;;;7.27;;
44048;SDS011;29717;47.028;15.470;2022-11-23T11:17:28;7.10;;;5.83;;
44048;SDS011;29717;47.028;15.470;2022-11-23T11:19:55;6.47;;;5.70;;
44048;SDS011;29717;47.028;15.470;2022-11-23T11:22:32;8.47;;;6.10;;
44048;SDS011;29717;47.028;15.470;2022-11-23T11:25:04;6.30;;;5.57;;
44048;SDS011;29717;47.028;15.470;2022-11-23T11:27:31;8.23;;;5.83;;
44048;SDS011;29717;47.028;15.470;2022-11-23T11:30:02;5.87;;;5.20;;
44048;SDS011;29717;47.028;15.470;2022-11-23T11:32:30;6.43;;;5.77;;
44048;SDS011;29717;47.028;15.470;2022-11-23T11:35:01;8.97;;;6.00;;
44048;SDS011;29717;47.028;15.470;2022-11-23T11:37:31;6.73;;;5.63;;
44048;SDS011;29717;47.028;15.470;2022-11-23T11:40:02;8.17;;;5.73;;
44048;SDS011;29717;47.028;15.470;2022-11-23T11:42:34;6.13;;;5.53;;
44048;SDS011;29717;47.028;15.470;2022-11-23T11:45:02;7.93;;;6.37;;
44048;SDS011;29717;47.028;15.470;2022-11-23T11:47:31;8.83;;;6.50;;
44048;SDS011;29717;47.028;15.470;2022-11-23T11:50:00;7.97;;;6.53;;
44048;SDS011;29717;47.028;15.470;2022-11-23T11:52:29;6.70;;;5.90;;
44048;SDS011;29717;47.028;15.470;2022-11-23T11:55:00;8.43;;;6.00;;
44048;SDS011;29717;47.028;15.470;2022-11-23T11:57:28;9.17;;;6.90;;
44048;SDS011;29717;47.028;15.470;2022-11-23T11:59:58;8.70;;;6.50;;
44048;SDS011;29717;47.028;15.470;2022-11-23T12:02:27;6.40;;;5.80;;
44048;SDS011;29717;47.028;15.470;2022-11-23T12:04:59;8.23;;;5.80;;
44048;SDS011;29717;47.028;15.470;2022-11-23T12:07:31;9.20;;;7.47;;
44048;SDS011;29717;47.028;15.470;2022-11-23T12:10:05;7.57;;;6.13;;
44048;SDS011;29717;47.028;15.470;2022-11-23T12:12:35;9.73;;;6.00;;
44048;SDS011;29717;47.028;15.470;2022-11-23T12:15:04;10.00;;;6.40;;
44048;SDS011;29717;47.028;15.470;2022-11-23T12:17:36;7.73;;;6.37;;
44048;SDS011;29717;47.028;15.470;2022-11-23T12:20:08;8.43;;;6.00;;
44048;SDS011;29717;47.028;15.470;2022-11-23T12:22:39;9.67;;;5.93;;
44048;SDS011;29717;47.028;15.470;2022-11-23T12:25:15;6.85;;;5.78;;
44048;SDS011;29717;47.028;15.470;2022-11-23T12:27:48;8.45;;;5.78;;
44048;SDS011;29717;47.028;15.470;2022-11-23T12:30:22;6.45;;;5.25;;
44048;SDS011;29717;47.028;15.470;2022-11-23T12:32:55;7.65;;;5.20;;
44048;SDS011;29717;47.028;15.470;2022-11-23T12:35:44;6.57;;;4.95;;
44048;SDS011;29717;47.028;15.470;2022-11-23T12:38:14;11.07;;;5.37;;
44048;SDS011;29717;47.028;15.470;2022-11-23T12:43:30;7.80;;;5.50;;
44048;SDS011;29717;47.028;15.470;2022-11-23T12:46:02;6.80;;;5.73;;
44048;SDS011;29717;47.028;15.470;2022-11-23T12:48:35;6.88;;;5.40;;
44048;SDS011;29717;47.028;15.470;2022-11-23T12:51:05;5.88;;;5.05;;
44048;SDS011;29717;47.028;15.470;2022-11-23T12:53:39;6.20;;;5.10;;
44048;SDS011;29717;47.028;15.470;2022-11-23T12:56:10;5.97;;;5.32;;
44048;SDS011;29717;47.028;15.470;2022-11-23T12:58:39;6.25;;;5.30;;
44048;SDS011;29717;47.028;15.470;2022-11-23T13:01:11;5.70;;;5.10;;
44048;SDS011;29717;47.028;15.470;2022-11-23T13:03:50;6.27;;;5.00;;
44048;SDS011;29717;47.028;15.470;2022-11-23T13:06:30;7.70;;;5.95;;
44048;SDS011;29717;47.028;15.470;2022-11-23T13:09:20;8.07;;;5.82;;
44048;SDS011;29717;47.028;15.470;2022-11-23T13:11:56;9.27;;;6.35;;
44048;SDS011;29717;47.028;15.470;2022-11-23T13:14:26;9.98;;;5.28;;
44048;SDS011;29717;47.028;15.470;2022-11-23T13:17:02;10.80;;;5.23;;
44048;SDS011;29717;47.028;15.470;2022-11-23T13:22:20;9.83;;;5.33;;
44048;SDS011;29717;47.028;15.470;2022-11-23T13:25:01;6.97;;;5.53;;
44048;SDS011;29717;47.028;15.470;2022-11-23T13:27:29;7.97;;;5.60;;
44048;SDS011;29717;47.028;15.470;2022-11-23T13:29:56;6.50;;;4.80;;
44048;SDS011;29717;47.028;15.470;2022-11-23T13:32:43;8.00;;;5.00;;
44048;SDS011;29717;47.028;15.470;2022-11-23T13:46:23;7.17;;;6.00;;
44048;SDS011;29717;47.028;15.470;2022-11-23T13:48:54;6.10;;;5.22;;
44048;SDS011;29717;47.028;15.470;2022-11-23T13:51:24;8.40;;;5.27;;
44048;SDS011;29717;47.028;15.470;2022-11-23T13:53:57;6.20;;;5.47;;
44048;SDS011;29717;47.028;15.470;2022-11-23T13:56:30;5.40;;;4.90;;
44048;SDS011;29717;47.028;15.470;2022-11-23T13:58:58;9.93;;;5.93;;
44048;SDS011;29717;47.028;15.470;2022-11-23T14:04:21;7.63;;;5.80;;
44048;SDS011;29717;47.028;15.470;2022-11-23T14:06:48;6.93;;;5.83;;
44048;SDS011;29717;47.028;15.470;2022-11-23T14:09:20;5.53;;;5.03;;
44048;SDS011;29717;47.028;15.470;2022-11-23T14:11:55;7.93;;;5.47;;
44048;SDS011;29717;47.028;15.470;2022-11-23T14:14:25;6.80;;;5.10;;
44048;SDS011;29717;47.028;15.470;2022-11-23T14:19:38;7.67;;;6.03;;
44048;SDS011;29717;47.028;15.470;2022-11-23T14:22:09;8.67;;;6.23;;
44048;SDS011;29717;47.028;15.470;2022-11-23T14:27:41;6.30;;;5.60;;
44048;SDS011;29717;47.028;15.470;2022-11-23T14:33:02;9.57;;;5.80;;
44048;SDS011;29717;47.028;15.470;2022-11-23T14:35:37;9.77;;;7.13;;
44048;SDS011;29717;47.028;15.470;2022-11-23T14:38:25;6.27;;;5.67;;
44048;SDS011;29717;47.028;15.470;2022-11-23T14:40:53;8.27;;;6.10;;
44048;SDS011;29717;47.028;15.470;2022-11-23T14:43:25;9.57;;;7.00;;
44048;SDS011;29717;47.028;15.470;2022-11-23T14:45:53;8.33;;;6.90;;
44048;SDS011;29717;47.028;15.470;2022-11-23T14:48:26;9.60;;;6.27;;
44048;SDS011;29717;47.028;15.470;2022-11-23T14:50:56;6.23;;;5.60;;
44048;SDS011;29717;47.028;15.470;2022-11-23T14:53:24;8.57;;;6.60;;
44048;SDS011;29717;47.028;15.470;2022-11-23T14:55:52;10.53;;;6.37;;
44048;SDS011;29717;47.028;15.470;2022-11-23T14:58:19;9.27;;;6.67;;
44048;SDS011;29717;47.028;15.470;2022-11-23T15:00:49;8.67;;;7.20;;
44048;SDS011;29717;47.028;15.470;2022-11-23T15:03:17;11.60;;;7.67;;
44048;SDS011;29717;47.028;15.470;2022-11-23T15:05:45;17.40;;;8.83;;
44048;SDS011;29717;47.028;15.470;2022-11-23T15:08:15;18.17;;;10.97;;
44048;SDS011;29717;47.028;15.470;2022-11-23T15:10:44;11.70;;;8.20;;
44048;SDS011;29717;47.028;15.470;2022-11-23T15:13:15;15.40;;;6.53;;